Historyczne dane pomiarowe

Dodano dane terminowe – wersja testowa.

Dane z okresu 1951-2019

Wersja bazy: 1.34 [2019-03-16, lista zmian], aktualizacja planowana na 2019-04-15

Dane meteo z obszaru Polski uzyskane na podstawie danych udostępnionych przez Instytut Meteorologii i Gospodarki Wodnej – Państwowy Instytut Badawczy.

 

Wybierz Datę:    

       

TemperaturaWilgotnośćWiatrCiśnienieOpadyŚniegCzas trwania zjawisk
 Stacja t tx tn tng RH VA  wxwx mslp ppp RRR   cm mm wxwxwxwxwxwxwx
1964-05-15 10.1 13.7 5.9 4.3 68.0 8.4----1019.0- 0.0--x- 4.6-------
1964-05-16 10.6 17.2 6.3 4.8 60.0 7.7----1020.3- 0.0--x- 14.8-------
1964-05-17 13.7 18.7 3.4 -0.2 62.0 9.5----1017.1- 0.0--x- 6.9-------
1964-05-18 15.3 23.1 9.6 6.0 60.0 10.5----1012.8- 0.0--x- 6.8-------
1964-05-19 13.0 19.1 6.4 5.9 46.0 6.7----1013.4- 0.0--x- 10.8-------
1964-05-20 11.2 17.8 7.9 4.3 75.0 10.4----1007.1- 3.7--x- 0.6-------
1964-05-21 10.5 13.3 8.5 8.8 86.0 10.9----1008.8- 0.7--x- 0.0-------
1964-05-22 13.2 21.3 4.4 1.2 63.0 8.8----1011.1- 0.0--x- 10.1-------
1964-05-23 16.5 23.2 6.8 2.7 50.0 9.1----1013.0- 0.0--x- 15.3-------
1964-05-24 18.8 24.9 8.6 4.9 43.0 9.2----1011.4- 0.0--x- 15.1-------
1964-05-25 19.6 25.0 9.0 4.9 47.0 10.5----1006.8- 0.0--x- 14.8-------
1964-05-26 19.1 25.3 11.2 10.0 50.0 10.8----1003.0- 0.0--x- 14.0-------
1964-05-27 19.2 26.3 10.4 9.1 51.0 10.9----1001.2- 0.0--x- 10.9-------
1964-05-28 18.6 27.3 12.5 10.6 64.0 13.6----1001.5- 6.1--x- 6.6-------
1964-05-29 19.1 25.0 13.0 12.8 64.0 14.0----1004.0- 0.0--x- 12.2-------
1964-05-30 20.2 26.6 11.7 8.4 56.0 12.8----1003.5- 0.0--x- 12.3-------
1964-05-31 17.0 20.7 11.7 12.7 72.0 14.1----1000.6- 7.8--x- 7.4-------
1964-06-01 19.3 28.6 12.2 11.4 76.0 16.8---- 993.1- 9.0--x- 8.6-------
1964-06-02 19.9 27.8 14.4 12.0 71.0 17.3---- 991.2- 0.8--x- 7.7-------
1964-06-03 20.6 26.3 12.6 10.0 51.0 11.9----1001.5- 0.0--x- 9.8-------
1964-06-04 18.9 25.3 13.1 8.4 57.0 12.3----1012.6- 0.0--x- 14.3-------
1964-06-05 23.6 30.0 12.0 9.1 48.0 13.1----1009.6- 0.0--x- 14.9-------
1964-06-06 19.9 23.7 15.6 16.3 66.0 15.2----1012.2- 0.3--x- 4.3-------
1964-06-07 22.1 28.3 13.2 10.9 52.0 13.3----1006.4- 7.3--x- 13.9-------
1964-06-08 17.0 22.4 15.7 16.0 68.0 13.5----1007.6- 0.0--x- 4.8-------
1964-06-09 15.4 21.3 10.4 7.9 63.0 10.9----1015.8- 0.0--x- 12.8-------
1964-06-10 19.2 25.9 8.0 5.3 53.0 10.9----1015.0- 0.0--x- 14.3-------
1964-06-11 21.4 29.5 13.2 10.0 47.0 11.6----1011.5- 0.0--x- 15.1-------
1964-06-12 24.1 31.2 12.9 10.4 45.0 13.1----1010.6- 0.0--x- 13.6-------
1964-06-13 26.5 34.2 15.4 12.9 44.0 14.5----1004.7- 0.0--x- 14.1-------
1033.8 ms

 

Źródłem pochodzenia danych jest Instytut Meteorologii i Gospodarki Wodnej – Państwowy Instytut Badawczy. Dane Instytutu Meteorologii i Gospodarki Wodnej – Państwowego Instytutu Badawczego zostały przetworzone.

Dane źródłowe można odnaleźć na stronie https://dane.imgw.pl